createdAt,value
2018-12-14T00:01:25.996Z,4.30
2018-12-14T00:03:55.268Z,4.60
2018-12-14T00:06:24.810Z,4.73
2018-12-14T00:08:54.315Z,4.60
2018-12-14T00:11:23.571Z,4.70
2018-12-14T00:13:52.716Z,4.50
2018-12-14T00:16:26.921Z,5.10
2018-12-14T00:18:56.020Z,5.20
2018-12-14T00:21:28.782Z,4.50
2018-12-14T00:23:58.214Z,4.50
2018-12-14T00:26:34.719Z,4.70
2018-12-14T00:29:03.818Z,4.13
2018-12-14T00:31:35.975Z,4.43
2018-12-14T00:34:05.122Z,4.67
2018-12-14T00:36:37.918Z,4.73
2018-12-14T00:39:08.057Z,4.90
2018-12-14T00:41:40.388Z,4.80
2018-12-14T00:44:09.754Z,4.90
2018-12-14T00:46:45.507Z,4.60
2018-12-14T00:49:18.993Z,4.73
2018-12-14T00:51:48.860Z,4.37
2018-12-14T00:54:18.182Z,4.47
2018-12-14T00:56:48.953Z,4.60
2018-12-14T00:59:18.112Z,5.07
2018-12-14T01:01:51.938Z,4.73
2018-12-14T01:04:21.529Z,4.03
2018-12-14T01:06:54.312Z,4.00
2018-12-14T01:09:23.450Z,4.43
2018-12-14T01:11:58.353Z,4.83
2018-12-14T01:14:27.587Z,4.90
2018-12-14T01:17:00.795Z,4.80
2018-12-14T01:19:30.000Z,4.60
2018-12-14T01:22:06.046Z,5.13
2018-12-14T01:24:35.778Z,4.53
2018-12-14T01:27:08.387Z,4.70
2018-12-14T01:29:37.478Z,5.07
2018-12-14T01:32:13.693Z,4.17
2018-12-14T01:34:42.977Z,4.60
2018-12-14T01:37:15.199Z,4.83
2018-12-14T01:39:44.775Z,4.30
2018-12-14T01:42:22.817Z,4.47
2018-12-14T01:44:51.971Z,5.30
2018-12-14T01:47:21.197Z,4.23
2018-12-14T01:49:50.966Z,4.07
2018-12-14T01:52:29.532Z,4.30
2018-12-14T01:54:58.901Z,4.10
2018-12-14T01:57:28.560Z,4.33
2018-12-14T01:59:57.532Z,4.23
2018-12-14T02:02:27.161Z,4.97
2018-12-14T02:04:56.163Z,4.57
2018-12-14T02:07:32.247Z,4.77
2018-12-14T02:10:01.634Z,4.60
2018-12-14T02:12:32.081Z,5.20
2018-12-14T02:15:01.274Z,4.93
2018-12-14T02:17:34.987Z,4.97
2018-12-14T02:20:04.039Z,4.97
2018-12-14T02:22:38.340Z,4.70
2018-12-14T02:25:07.856Z,4.77
2018-12-14T02:27:44.274Z,3.63
2018-12-14T02:30:24.530Z,5.00
2018-12-14T02:32:53.729Z,4.47
2018-12-14T02:35:22.998Z,4.97
2018-12-14T02:37:52.087Z,5.17
2018-12-14T02:40:21.381Z,5.53
2018-12-14T02:42:50.794Z,5.10
2018-12-14T02:45:19.886Z,4.67
2018-12-14T02:47:52.776Z,5.60
2018-12-14T02:50:22.338Z,5.50
2018-12-14T02:52:54.995Z,4.10
2018-12-14T02:55:24.515Z,4.87
2018-12-14T02:57:57.703Z,5.77
2018-12-14T03:00:27.002Z,5.20
2018-12-14T03:03:00.433Z,5.80
2018-12-14T03:05:29.765Z,4.97
2018-12-14T03:08:02.889Z,4.27
2018-12-14T03:10:32.339Z,6.37
2018-12-14T03:13:08.452Z,5.07
2018-12-14T03:15:37.435Z,4.47
2018-12-14T03:20:51.089Z,4.83
2018-12-14T03:23:20.116Z,5.60
2018-12-14T03:25:49.695Z,5.03
2018-12-14T03:28:19.086Z,4.70
2018-12-14T03:30:48.445Z,5.57
2018-12-14T03:33:19.060Z,4.63
2018-12-14T03:35:48.796Z,4.50
2018-12-14T03:38:21.684Z,4.47
2018-12-14T03:40:50.931Z,5.37
2018-12-14T03:43:23.610Z,4.90
2018-12-14T03:45:52.907Z,5.20
2018-12-14T03:48:27.254Z,4.83
2018-12-14T03:50:56.866Z,4.47
2018-12-14T03:53:29.355Z,4.40
2018-12-14T03:55:58.378Z,4.57
2018-12-14T03:58:31.109Z,5.20
2018-12-14T04:01:00.302Z,4.97
2018-12-14T04:03:34.007Z,4.57
2018-12-14T04:06:04.746Z,4.97
2018-12-14T04:08:37.895Z,5.23
2018-12-14T04:11:06.935Z,5.13
2018-12-14T04:13:40.776Z,4.60
2018-12-14T04:16:09.756Z,4.67
2018-12-14T04:18:43.863Z,4.10
2018-12-14T04:21:13.601Z,5.20
2018-12-14T04:23:50.377Z,4.67
2018-12-14T04:26:19.734Z,4.70
2018-12-14T04:28:52.313Z,5.57
2018-12-14T04:31:21.515Z,5.13
2018-12-14T04:33:54.274Z,4.77
2018-12-14T04:36:23.919Z,5.10
2018-12-14T04:38:56.833Z,4.77
2018-12-14T04:41:25.988Z,4.40
2018-12-14T04:44:02.951Z,4.77
2018-12-14T04:46:32.136Z,4.90
2018-12-14T04:49:01.566Z,5.27
2018-12-14T04:51:30.892Z,4.33
2018-12-14T04:54:06.937Z,4.77
2018-12-14T04:56:36.210Z,4.60
2018-12-14T04:59:09.221Z,5.13
2018-12-14T05:01:38.488Z,4.67
2018-12-14T05:04:14.601Z,5.80
2018-12-14T05:06:43.822Z,4.90
2018-12-14T05:09:14.660Z,5.10
2018-12-14T05:11:44.078Z,5.33
2018-12-14T05:14:17.836Z,6.47
2018-12-14T05:16:47.450Z,6.10
2018-12-14T05:19:20.130Z,5.70
2018-12-14T05:21:49.413Z,5.93
2018-12-14T05:24:22.110Z,5.90
2018-12-14T05:26:51.165Z,4.73
2018-12-14T05:29:27.356Z,5.77
2018-12-14T05:31:56.663Z,4.53
2018-12-14T05:34:26.950Z,5.20
2018-12-14T05:36:56.109Z,4.97
2018-12-14T05:39:30.150Z,4.57
2018-12-14T05:41:59.152Z,4.63
2018-12-14T05:44:31.484Z,4.03
2018-12-14T05:47:00.743Z,4.33
2018-12-14T05:49:34.893Z,3.70
2018-12-14T05:52:04.053Z,3.73
2018-12-14T05:54:38.818Z,3.23
2018-12-14T05:57:07.889Z,3.07
2018-12-14T05:59:40.712Z,3.27
2018-12-14T06:02:10.179Z,3.20
2018-12-14T06:04:43.072Z,3.03
2018-12-14T06:07:12.140Z,3.10
2018-12-14T06:09:44.643Z,2.87
2018-12-14T06:12:13.909Z,3.40
2018-12-14T06:14:49.512Z,3.33
2018-12-14T06:17:19.083Z,3.00
2018-12-14T06:19:51.958Z,2.77
2018-12-14T06:22:21.270Z,4.13
2018-12-14T06:24:53.880Z,3.40
2018-12-14T06:27:23.366Z,3.67
2018-12-14T06:29:59.584Z,3.40
2018-12-14T06:32:28.641Z,3.33
2018-12-14T06:35:00.753Z,3.50
2018-12-14T06:37:29.963Z,3.40
2018-12-14T06:40:03.171Z,3.60
2018-12-14T06:42:32.150Z,3.03
2018-12-14T06:45:10.127Z,2.83
2018-12-14T06:47:39.643Z,3.40
2018-12-14T06:50:09.437Z,3.60
2018-12-14T06:52:38.449Z,3.40
2018-12-14T06:55:15.426Z,4.23
2018-12-14T06:57:45.560Z,3.50
2018-12-14T07:00:16.103Z,3.87
2018-12-14T07:02:45.645Z,3.87
2018-12-14T07:05:18.312Z,4.00
2018-12-14T07:07:47.822Z,4.60
2018-12-14T07:10:21.862Z,3.33
2018-12-14T07:12:52.208Z,3.83
2018-12-14T07:15:23.204Z,4.17
2018-12-14T07:17:52.254Z,4.00
2018-12-14T07:20:28.514Z,4.40
2018-12-14T07:22:57.477Z,4.00
2018-12-14T07:25:31.719Z,4.03
2018-12-14T07:28:01.246Z,3.90
2018-12-14T07:30:30.439Z,3.93
2018-12-14T07:33:00.787Z,4.80
2018-12-14T07:35:41.973Z,4.47
2018-12-14T07:38:10.042Z,4.10
2018-12-14T07:40:40.492Z,4.37
2018-12-14T07:43:09.966Z,4.17
2018-12-14T07:45:39.763Z,4.60
2018-12-14T07:48:08.753Z,5.00
2018-12-14T07:50:41.239Z,4.43
2018-12-14T07:53:10.671Z,4.90
2018-12-14T07:55:47.481Z,4.57
2018-12-14T07:58:16.507Z,5.30
2018-12-14T08:00:48.663Z,5.47
2018-12-14T08:03:17.738Z,4.53
2018-12-14T08:05:53.853Z,4.93
2018-12-14T08:08:23.402Z,3.83
2018-12-14T08:10:53.146Z,4.87
2018-12-14T08:13:22.589Z,4.27
2018-12-14T08:15:59.818Z,4.80
2018-12-14T08:18:29.007Z,4.13
2018-12-14T08:20:59.882Z,5.17
2018-12-14T08:23:31.460Z,4.80
2018-12-14T08:26:02.730Z,4.97
2018-12-14T08:28:32.187Z,3.97
2018-12-14T08:31:04.702Z,5.07
2018-12-14T08:33:42.627Z,5.73
2018-12-14T08:36:16.038Z,4.57
2018-12-14T08:38:46.749Z,5.10
2018-12-14T08:41:18.574Z,4.60
2018-12-14T08:43:49.778Z,5.03
2018-12-14T08:46:23.777Z,4.57
2018-12-14T08:48:53.954Z,4.73
2018-12-14T08:51:23.836Z,5.60
2018-12-14T08:53:53.431Z,5.73
2018-12-14T08:56:22.825Z,5.23
2018-12-14T08:58:51.942Z,4.70
2018-12-14T09:01:21.713Z,5.03
2018-12-14T09:03:51.561Z,4.27
2018-12-14T09:06:24.518Z,4.90
2018-12-14T09:08:53.712Z,4.57
2018-12-14T09:11:30.363Z,5.10
2018-12-14T09:13:59.582Z,4.40
2018-12-14T09:16:28.762Z,4.63
2018-12-14T09:19:02.189Z,5.17
2018-12-14T09:21:31.303Z,4.53
2018-12-14T09:24:00.385Z,4.57
2018-12-14T09:26:35.234Z,5.60
2018-12-14T09:29:06.084Z,4.73
2018-12-14T09:31:36.965Z,6.10
2018-12-14T09:34:11.397Z,4.93
2018-12-14T09:36:52.853Z,5.17
2018-12-14T09:39:24.786Z,5.13
2018-12-14T09:41:55.147Z,3.97
2018-12-14T09:44:24.730Z,4.93
2018-12-14T09:46:54.351Z,4.90
2018-12-14T09:49:24.125Z,4.47
2018-12-14T09:51:53.491Z,5.23
2018-12-14T09:54:23.809Z,5.20
2018-12-14T09:56:53.027Z,5.03
2018-12-14T09:59:22.154Z,5.03
2018-12-14T10:01:54.441Z,5.20
2018-12-14T10:04:24.055Z,4.57
2018-12-14T10:07:00.643Z,4.47
2018-12-14T10:09:31.233Z,5.07
2018-12-14T10:12:31.736Z,4.27
2018-12-14T10:15:03.039Z,4.57
2018-12-14T10:17:32.127Z,4.13
2018-12-14T10:20:10.631Z,3.83
2018-12-14T10:22:43.029Z,5.60
2018-12-14T10:25:14.383Z,3.93
2018-12-14T10:27:43.443Z,4.47
2018-12-14T10:30:13.769Z,4.90
2018-12-14T10:32:43.275Z,4.10
2018-12-14T10:35:25.766Z,5.30
2018-12-14T10:37:55.649Z,5.27
2018-12-14T10:40:25.852Z,4.83
2018-12-14T10:42:54.936Z,4.67
2018-12-14T10:45:28.196Z,4.87
2018-12-14T10:47:57.282Z,4.70
2018-12-14T10:50:26.450Z,4.70
2018-12-14T10:52:56.944Z,4.70
2018-12-14T10:55:26.198Z,4.63
2018-12-14T10:57:55.599Z,4.57
2018-12-14T11:00:37.457Z,4.90
2018-12-14T11:03:06.694Z,4.87
2018-12-14T11:05:45.264Z,5.87
2018-12-14T11:08:16.904Z,4.57
2018-12-14T11:10:47.432Z,4.10
2018-12-14T11:13:16.460Z,5.37
2018-12-14T11:15:56.894Z,4.00
2018-12-14T11:18:27.269Z,5.77
2018-12-14T11:20:57.794Z,5.40
2018-12-14T11:23:26.971Z,4.80
2018-12-14T11:25:56.463Z,4.93
2018-12-14T11:28:26.230Z,4.60
2018-12-14T11:30:55.234Z,5.17
2018-12-14T11:33:24.386Z,5.10
2018-12-14T11:35:53.433Z,4.77
2018-12-14T11:38:22.397Z,4.90
2018-12-14T11:40:51.711Z,4.70
2018-12-14T11:43:20.775Z,4.40
2018-12-14T11:45:53.433Z,4.50
2018-12-14T11:48:22.771Z,4.83
2018-12-14T11:51:00.563Z,5.07
2018-12-14T11:53:29.837Z,4.40
2018-12-14T11:56:00.760Z,4.77
2018-12-14T11:58:30.157Z,4.97
2018-12-14T12:01:06.786Z,4.80
2018-12-14T12:03:42.799Z,4.13
2018-12-14T12:06:12.103Z,4.27
2018-12-14T12:08:43.522Z,4.93
2018-12-14T12:11:13.077Z,5.33
2018-12-14T12:13:42.658Z,4.53
2018-12-14T12:16:20.456Z,3.87
2018-12-14T12:18:50.296Z,4.47
2018-12-14T12:21:20.382Z,5.33
2018-12-14T12:23:55.200Z,4.17
2018-12-14T12:26:34.646Z,4.20
2018-12-14T12:29:03.982Z,4.90
2018-12-14T12:31:33.380Z,5.00
2018-12-14T12:34:03.439Z,4.80
2018-12-14T12:36:32.801Z,4.33
2018-12-14T12:39:02.269Z,4.40
2018-12-14T12:41:32.027Z,4.80
2018-12-14T12:44:00.995Z,4.60
2018-12-14T12:46:32.302Z,4.93
2018-12-14T12:49:01.747Z,4.93
2018-12-14T12:51:32.098Z,4.60
2018-12-14T12:54:01.386Z,4.57
2018-12-14T12:56:38.188Z,5.47
2018-12-14T12:59:07.248Z,4.90
2018-12-14T13:01:37.056Z,4.60
2018-12-14T13:04:06.525Z,4.60
2018-12-14T13:06:39.807Z,5.27
2018-12-14T13:09:08.924Z,5.83
2018-12-14T13:11:45.669Z,5.20
2018-12-14T13:14:15.025Z,5.27
2018-12-14T13:16:44.672Z,5.83
2018-12-14T13:19:14.694Z,6.53
2018-12-14T13:21:47.580Z,5.40
2018-12-14T13:24:16.783Z,6.50
2018-12-14T13:26:51.676Z,6.07
2018-12-14T13:29:20.666Z,6.07
2018-12-14T13:31:57.051Z,6.07
2018-12-14T13:34:26.430Z,6.20
2018-12-14T13:36:56.399Z,5.87
2018-12-14T13:39:25.428Z,5.00
2018-12-14T13:42:02.082Z,6.20
2018-12-14T13:44:31.937Z,6.73
2018-12-14T13:47:01.895Z,6.20
2018-12-14T13:49:31.289Z,6.30
2018-12-14T13:52:08.447Z,6.10
2018-12-14T13:54:37.641Z,4.97
2018-12-14T13:57:06.830Z,5.40
2018-12-14T13:59:35.862Z,6.03
2018-12-14T14:02:12.889Z,5.20
2018-12-14T14:04:42.263Z,5.03
2018-12-14T14:07:21.394Z,5.60
2018-12-14T14:09:52.632Z,5.53
2018-12-14T14:12:22.684Z,5.83
2018-12-14T14:14:53.051Z,6.20
2018-12-14T14:17:22.947Z,5.63
2018-12-14T14:19:52.114Z,5.17
2018-12-14T14:22:22.071Z,5.80
2018-12-14T14:24:52.464Z,4.73
2018-12-14T14:27:25.323Z,5.33
2018-12-14T14:29:54.489Z,4.97
2018-12-14T14:32:26.269Z,5.23
2018-12-14T14:34:55.412Z,4.63
2018-12-14T14:37:27.833Z,4.90
2018-12-14T14:39:57.482Z,6.10
2018-12-14T14:42:30.640Z,4.83
2018-12-14T14:45:00.027Z,5.20
2018-12-14T14:47:34.153Z,5.17
2018-12-14T14:50:03.514Z,5.23
2018-12-14T14:52:35.924Z,4.87
2018-12-14T14:55:06.653Z,5.63
2018-12-14T14:57:43.623Z,5.10
2018-12-14T15:00:12.782Z,5.47
2018-12-14T15:02:42.161Z,5.43
2018-12-14T15:05:11.640Z,5.40
2018-12-14T15:07:47.755Z,4.57
2018-12-14T15:10:17.024Z,4.67
2018-12-14T15:12:47.951Z,5.17
2018-12-14T15:15:17.035Z,6.13
2018-12-14T15:17:49.958Z,6.73
2018-12-14T15:20:19.443Z,5.47
2018-12-14T15:22:56.310Z,6.20
2018-12-14T15:25:25.619Z,6.07
2018-12-14T15:27:55.542Z,5.43
2018-12-14T15:30:24.797Z,4.97
2018-12-14T15:33:00.784Z,6.47
2018-12-14T15:35:30.431Z,6.07
2018-12-14T15:38:01.648Z,5.90
2018-12-14T15:40:31.043Z,6.03
2018-12-14T15:43:07.629Z,6.70
2018-12-14T15:45:37.139Z,6.20
2018-12-14T15:48:09.020Z,5.43
2018-12-14T15:50:38.661Z,6.30
2018-12-14T15:53:15.118Z,6.83
2018-12-14T15:55:44.951Z,6.20
2018-12-14T15:58:15.503Z,6.70
2018-12-14T16:00:44.872Z,6.23
2018-12-14T16:03:17.839Z,6.60
2018-12-14T16:05:47.227Z,7.67
2018-12-14T16:08:24.339Z,6.90
2018-12-14T16:10:53.682Z,6.27
2018-12-14T16:13:22.732Z,6.53
2018-12-14T16:15:51.913Z,6.37
2018-12-14T16:18:25.351Z,6.83
2018-12-14T16:20:54.455Z,7.53
2018-12-14T16:23:27.254Z,7.47
2018-12-14T16:25:56.698Z,7.37
2018-12-14T16:28:29.687Z,7.37
2018-12-14T16:30:58.950Z,6.73
2018-12-14T16:33:31.582Z,7.00
2018-12-14T16:36:07.717Z,6.70
2018-12-14T16:38:39.932Z,7.77
2018-12-14T16:41:13.195Z,7.33
2018-12-14T16:43:44.724Z,6.33
2018-12-14T16:46:14.961Z,7.40
2018-12-14T16:48:45.203Z,7.03
2018-12-14T16:51:15.745Z,7.17
2018-12-14T16:53:50.590Z,7.23
2018-12-14T16:56:19.818Z,7.57
2018-12-14T16:58:49.198Z,6.90
2018-12-14T17:01:18.936Z,7.80
2018-12-14T17:03:51.829Z,7.63
2018-12-14T17:06:22.453Z,8.17
2018-12-14T17:08:53.890Z,6.97
2018-12-14T17:11:25.902Z,8.10
2018-12-14T17:13:56.214Z,7.13
2018-12-14T17:16:25.809Z,6.70
2018-12-14T17:18:56.237Z,6.40
2018-12-14T17:21:26.215Z,7.50
2018-12-14T17:29:34.561Z,6.17
2018-12-14T17:32:19.804Z,6.93
2018-12-14T17:34:51.513Z,6.67
2018-12-14T17:37:23.379Z,6.20
2018-12-14T17:39:57.347Z,6.17
2018-12-14T17:42:34.032Z,6.50
2018-12-14T17:45:18.558Z,6.93
2018-12-14T17:47:54.991Z,7.00
2018-12-14T17:50:42.122Z,6.73
2018-12-14T17:53:39.071Z,6.83
2018-12-14T17:56:15.299Z,6.63
2018-12-14T17:58:45.700Z,6.63
2018-12-14T18:01:24.520Z,8.40
2018-12-14T18:03:54.161Z,7.40
2018-12-14T18:06:24.825Z,8.23
2018-12-14T18:08:54.347Z,7.93
2018-12-14T18:11:26.157Z,8.37
2018-12-14T18:13:55.771Z,7.80
2018-12-14T18:16:32.950Z,7.57
2018-12-14T18:19:02.877Z,6.70
2018-12-14T18:21:32.326Z,7.30
2018-12-14T18:24:01.772Z,6.73
2018-12-14T18:26:34.355Z,8.67
2018-12-14T18:29:03.458Z,7.97
2018-12-14T18:31:39.664Z,8.33
2018-12-14T18:34:09.437Z,7.57
2018-12-14T18:36:38.778Z,7.93
2018-12-14T18:39:08.330Z,7.00
2018-12-14T18:41:48.611Z,7.43
2018-12-14T18:46:48.951Z,7.70
2018-12-14T18:49:19.098Z,7.93
2018-12-14T18:51:48.811Z,7.67
2018-12-14T18:54:18.845Z,7.73
2018-12-14T18:56:52.279Z,7.80
2018-12-14T18:59:21.611Z,7.70
2018-12-14T19:01:52.602Z,6.67
2018-12-14T19:04:22.725Z,7.30
2018-12-14T19:06:56.148Z,7.40
2018-12-14T19:09:25.548Z,7.87
2018-12-14T19:11:59.022Z,7.63
2018-12-14T19:14:29.011Z,7.50
2018-12-14T19:17:03.506Z,7.90
2018-12-14T19:19:33.145Z,7.57
2018-12-14T19:22:03.286Z,10.27
2018-12-14T19:24:32.394Z,10.60
2018-12-14T19:27:07.267Z,7.30
2018-12-14T19:29:38.253Z,7.90
2018-12-14T19:32:16.105Z,8.40
2018-12-14T19:34:45.695Z,8.70
2018-12-14T19:37:14.904Z,8.97
2018-12-14T19:39:44.582Z,7.90
2018-12-14T19:42:20.023Z,6.63
2018-12-14T19:51:43.337Z,8.57
2018-12-14T19:54:12.441Z,7.13
2018-12-14T19:56:42.234Z,9.07
2018-12-14T19:59:11.635Z,7.67
2018-12-14T20:01:40.808Z,9.13
2018-12-14T20:04:10.121Z,7.53
2018-12-14T20:06:39.468Z,10.30
2018-12-14T20:09:08.674Z,8.40
2018-12-14T20:11:37.725Z,9.20
2018-12-14T20:14:08.977Z,9.50
2018-12-14T20:16:40.068Z,9.00
2018-12-14T20:19:09.244Z,8.03
2018-12-14T20:21:39.208Z,9.13
2018-12-14T20:24:08.563Z,8.43
2018-12-14T20:26:41.827Z,9.07
2018-12-14T20:29:11.246Z,8.70
2018-12-14T20:31:42.069Z,9.20
2018-12-14T20:34:12.368Z,8.90
2018-12-14T20:36:46.782Z,9.10
2018-12-14T20:39:16.779Z,7.70
2018-12-14T20:41:48.690Z,8.63
2018-12-14T20:44:17.973Z,8.17
2018-12-14T20:46:50.759Z,8.37
2018-12-14T20:49:20.860Z,7.77
2018-12-14T20:51:53.465Z,8.30
2018-12-14T20:54:22.934Z,8.60
2018-12-14T20:56:56.377Z,7.83
2018-12-14T20:59:26.878Z,7.00
2018-12-14T21:01:57.855Z,7.27
2018-12-14T21:04:27.162Z,7.87
2018-12-14T21:07:01.396Z,7.33
2018-12-14T21:09:30.900Z,7.53
2018-12-14T21:12:04.964Z,5.73
2018-12-14T21:14:34.035Z,5.93
2018-12-14T21:17:10.479Z,6.50
2018-12-14T21:19:39.808Z,6.43
2018-12-14T21:22:15.250Z,6.50
2018-12-14T21:24:50.999Z,5.90
2018-12-14T21:27:24.435Z,7.70
2018-12-14T21:29:53.777Z,5.70
2018-12-14T21:32:23.711Z,8.03
2018-12-14T21:34:54.802Z,6.40
2018-12-14T21:37:28.220Z,7.03
2018-12-14T21:39:57.847Z,5.80
2018-12-14T21:42:32.019Z,7.30
2018-12-14T21:45:06.115Z,6.13
2018-12-14T21:47:36.258Z,7.60
2018-12-14T21:50:05.901Z,5.63
2018-12-14T21:52:36.276Z,7.23
2018-12-14T21:55:06.915Z,5.90
2018-12-14T21:57:40.064Z,7.80
2018-12-14T22:00:13.384Z,7.17
2018-12-14T22:02:43.797Z,6.93
2018-12-14T22:05:15.710Z,5.37
2018-12-14T22:07:46.400Z,7.73
2018-12-14T22:10:17.702Z,5.83
2018-12-14T22:12:49.921Z,7.33
2018-12-14T22:15:19.987Z,5.90
2018-12-14T22:17:51.422Z,7.53
2018-12-14T22:20:20.998Z,5.90
2018-12-14T22:22:50.901Z,7.53
2018-12-14T22:25:20.515Z,5.80
2018-12-14T22:27:52.109Z,6.93
2018-12-14T22:30:21.727Z,5.07
2018-12-14T22:32:51.325Z,7.07
2018-12-14T22:35:20.900Z,6.87
2018-12-14T22:37:52.333Z,6.63
2018-12-14T22:40:21.634Z,5.70
2018-12-14T22:42:53.847Z,5.77
2018-12-14T22:45:23.500Z,6.30
2018-12-14T22:47:57.906Z,6.13
2018-12-14T22:50:28.672Z,5.33
2018-12-14T22:53:00.996Z,5.90
2018-12-14T22:55:33.649Z,6.00
2018-12-14T22:58:03.494Z,6.57
2018-12-14T23:00:34.937Z,6.40
2018-12-14T23:03:05.188Z,8.07
2018-12-14T23:05:34.330Z,6.53
2018-12-14T23:08:15.758Z,6.03
2018-12-14T23:10:46.439Z,6.70
2018-12-14T23:13:16.443Z,8.23
2018-12-14T23:15:45.888Z,7.43
2018-12-14T23:18:14.947Z,8.07
2018-12-14T23:20:45.760Z,7.30
2018-12-14T23:23:17.225Z,5.40
2018-12-14T23:25:46.246Z,6.73
2018-12-14T23:28:19.941Z,6.40
2018-12-14T23:30:49.947Z,6.53
2018-12-14T23:33:23.050Z,7.07
2018-12-14T23:35:52.214Z,6.57
2018-12-14T23:38:24.119Z,7.20
2018-12-14T23:40:54.559Z,6.07
2018-12-14T23:43:27.085Z,5.70
2018-12-14T23:45:56.069Z,5.30
2018-12-14T23:48:29.828Z,5.20
2018-12-14T23:50:58.944Z,5.13
2018-12-14T23:53:32.671Z,4.97
2018-12-14T23:56:01.924Z,5.67
2018-12-14T23:58:35.047Z,5.03
